Time;durP1;ratioP1;P1;durP2;ratioP2;P2;SDS_P1;SDS_P2;PMS_P1;PMS_P2;Temp;Humidity;BMP_temperature;BMP_pressure;BME280_temperature;BME280_humidity;BME280_pressure;Samples;Min_cycle;Max_cycle;Signal;HPM_P1;HPM_P2
2022/12/27 00:02:04;;;;;;;4.80;4.28;;;;;;;2.80;100.00;99714.27;1659277;85;21505;-62
2022/12/27 00:04:31;;;;;;;4.17;3.77;;;;;;;2.82;100.00;99715.97;1658224;86;21880;-62
2022/12/27 00:06:58;;;;;;;3.83;3.45;;;;;;;2.84;100.00;99718.55;1654022;85;21567;-62
2022/12/27 00:09:24;;;;;;;4.47;3.12;;;;;;;2.86;100.00;99723.29;1674214;85;21482;-61
2022/12/27 00:11:51;;;;;;;3.17;2.87;;;;;;;2.85;100.00;99735.42;1658179;85;21462;-62
2022/12/27 00:14:18;;;;;;;6.47;3.40;;;;;;;2.87;100.00;99722.42;1653317;85;21507;-62
2022/12/27 00:16:46;;;;;;;3.37;3.08;;;;;;;2.89;100.00;99718.08;1652973;86;21596;-62
2022/12/27 00:19:13;;;;;;;3.60;3.30;;;;;;;2.91;100.00;99721.52;1638514;86;21705;-62
2022/12/27 00:21:39;;;;;;;4.33;3.85;;;;;;;2.97;100.00;99721.89;1648414;86;21462;-63
2022/12/27 00:24:06;;;;;;;3.77;3.35;;;;;;;2.98;100.00;99715.38;1648487;86;21506;-62
2022/12/27 00:26:34;;;;;;;4.45;3.60;;;;;;;2.99;100.00;99718.39;1648388;86;21580;-63
2022/12/27 00:29:01;;;;;;;3.50;3.17;;;;;;;2.99;100.00;99712.34;1648250;86;21538;-63
2022/12/27 00:31:29;;;;;;;3.30;3.00;;;;;;;3.06;100.00;99717.89;1648532;85;21519;-63
2022/12/27 00:33:58;;;;;;;3.27;2.92;;;;;;;3.09;100.00;99708.78;1648274;85;21541;-63
2022/12/27 00:36:29;;;;;;;4.53;3.20;;;;;;;3.09;100.00;99695.34;1645465;86;21106;-59
2022/12/27 00:38:57;;;;;;;3.75;3.42;;;;;;;3.15;100.00;99698.31;1648258;86;21434;-59
2022/12/27 00:41:23;;;;;;;3.95;3.55;;;;;;;3.16;100.00;99687.47;1648342;86;21813;-59
2022/12/27 00:43:50;;;;;;;3.62;3.33;;;;;;;3.12;100.00;99690.09;1648181;86;21497;-59
2022/12/27 00:46:17;;;;;;;4.05;3.45;;;;;;;3.14;100.00;99684.03;1648259;86;21625;-59
2022/12/27 00:48:43;;;;;;;4.30;3.90;;;;;;;3.18;100.00;99683.96;1648598;86;21443;-59
2022/12/27 00:51:17;;;;;;;3.72;3.33;;;;;;;3.20;100.00;99681.34;1647617;85;21450;-59
2022/12/27 00:53:44;;;;;;;4.83;3.50;;;;;;;3.16;100.00;99682.27;1647668;85;22049;-60
2022/12/27 00:56:16;;;;;;;3.95;3.35;;;;;;;3.15;100.00;99680.57;1648566;86;21475;-59
2022/12/27 00:58:43;;;;;;;4.17;3.42;;;;;;;3.18;100.00;99684.41;1647965;86;21009;-59
2022/12/27 01:01:16;;;;;;;4.08;3.37;;;;;;;3.18;100.00;99678.77;1648504;86;26943;-59
2022/12/27 01:03:42;;;;;;;4.28;3.70;;;;;;;3.20;100.00;99684.83;1648341;86;21497;-59
2022/12/27 01:06:13;;;;;;;4.03;3.63;;;;;;;3.23;100.00;99684.78;1647173;85;22012;-59
2022/12/27 01:08:40;;;;;;;5.35;4.00;;;;;;;3.21;100.00;99681.78;1645767;85;21466;-59
2022/12/27 01:11:06;;;;;;;4.33;3.92;;;;;;;3.17;100.00;99675.77;1684016;84;21580;-59
2022/12/27 01:13:33;;;;;;;4.15;3.75;;;;;;;3.17;100.00;99675.77;1727733;81;21560;-59
2022/12/27 01:16:00;;;;;;;4.85;3.75;;;;;;;3.15;100.00;99672.77;1734691;81;21513;-59
2022/12/27 01:18:27;;;;;;;4.13;3.80;;;;;;;3.19;100.00;99668.80;1707891;83;21885;-58
2022/12/27 01:20:53;;;;;;;4.83;4.33;;;;;;;3.20;100.00;99660.56;1683453;83;21505;-60
2022/12/27 01:23:20;;;;;;;4.80;4.25;;;;;;;3.11;100.00;99660.26;1683361;83;21585;-60
2022/12/27 01:25:46;;;;;;;5.17;4.40;;;;;;;3.05;100.00;99659.02;1684378;83;21560;-60
2022/12/27 01:28:13;;;;;;;4.22;3.83;;;;;;;3.14;100.00;99658.05;1683719;84;21494;-61
2022/12/27 01:30:40;;;;;;;5.15;4.37;;;;;;;3.08;100.00;99652.04;1683405;84;21820;-60
2022/12/27 01:33:07;;;;;;;;;;;;;;;3.11;100.00;99649.42;1685830;84;21560;-60
2022/12/27 01:35:34;;;;;;;5.28;4.33;;;;;;;3.09;100.00;99643.83;1683361;84;20456;-60
2022/12/27 01:38:00;;;;;;;5.70;4.53;;;;;;;3.12;100.00;99634.23;1683313;84;21517;-60
2022/12/27 01:40:27;;;;;;;4.90;4.00;;;;;;;3.14;100.00;99633.37;1683370;84;21572;-60
2022/12/27 01:42:54;;;;;;;4.45;4.05;;;;;;;3.16;100.00;99620.77;1684307;83;21878;-60
2022/12/27 01:45:24;;;;;;;7.25;5.37;;;;;;;3.18;100.00;99616.85;1662341;84;21527;-60
2022/12/27 01:48:13;;;;;;;5.15;4.50;;;;;;;3.18;100.00;99607.77;1683503;84;21494;-59
2022/12/27 01:50:45;;;;;;;4.95;4.47;;;;;;;3.18;100.00;99595.62;1685004;84;21561;-59
2022/12/27 01:53:27;;;;;;;5.25;4.08;;;;;;;3.19;100.00;99584.36;1683772;84;21494;-59
2022/12/27 01:56:20;;;;;;;4.53;4.12;;;;;;;3.22;100.00;99580.85;1683511;84;21839;-59
2022/12/27 01:59:04;;;;;;;4.47;4.08;;;;;;;3.21;100.00;99581.30;1682925;84;21521;-60
2022/12/27 02:01:37;;;;;;;4.47;4.00;;;;;;;3.22;100.00;99576.53;1680608;83;21502;-59
2022/12/27 02:04:14;;;;;;;5.20;4.40;;;;;;;3.19;100.00;99577.86;1679697;84;21514;-59
2022/12/27 02:06:41;;;;;;;5.12;4.10;;;;;;;3.21;100.00;99570.91;1680004;85;21625;-59
2022/12/27 02:09:44;;;;;;;4.28;3.87;;;;;;;3.23;100.00;99570.44;1679960;83;22732;-59
2022/12/27 02:12:11;;;;;;;4.65;4.25;;;;;;;3.27;100.00;99564.31;1679592;84;21613;-59
2022/12/27 02:14:46;;;;;;;4.37;3.97;;;;;;;3.27;100.00;99561.71;1679944;85;21726;-59
2022/12/27 02:17:26;;;;;;;4.55;4.15;;;;;;;3.34;100.00;99570.30;1680849;83;21812;-61
2022/12/27 02:20:18;;;;;;;4.83;4.15;;;;;;;3.34;100.00;99570.30;1703663;81;21450;-59
2022/12/27 02:26:42;;;;;;;4.90;4.22;;;;;;;3.43;100.00;99558.47;1712256;83;21453;-59
2022/12/27 02:29:23;;;;;;;4.42;4.03;;;;;;;3.46;100.00;99549.75;1712156;83;21631;-60
2022/12/27 02:32:05;;;;;;;4.00;3.60;;;;;;;3.47;100.00;99547.59;1712292;83;20974;-60
2022/12/27 02:35:02;;;;;;;5.75;4.25;;;;;;;3.52;100.00;99535.35;1711449;82;21615;-59
2022/12/27 02:37:32;;;;;;;4.37;3.83;;;;;;;3.51;100.00;99528.45;1712135;82;21573;-59
2022/12/27 02:53:02;;;;;;;4.62;4.22;;;;;;;3.50;100.00;99526.30;1711958;83;21549;-59
2022/12/27 02:53:59;;;;;;;4.40;4.00;;;;;;;3.54;100.00;99521.03;1712197;83;21584;-59
2022/12/27 03:03:30;;;;;;;4.50;3.90;;;;;;;3.46;100.00;99501.21;1690482;83;21480;-60
2022/12/27 03:06:44;;;;;;;5.17;4.20;;;;;;;3.49;100.00;99494.67;1657327;84;21828;-59
2022/12/27 03:18:28;;;;;;;4.22;3.77;;;;;;;3.44;100.00;99486.08;1679199;85;21645;-59
2022/12/27 03:26:28;;;;;;;4.50;3.83;;;;;;;3.44;100.00;99492.58;1701480;82;21510;-59
2022/12/27 03:34:34;;;;;;;3.90;3.50;;;;;;;3.48;100.00;99485.59;1700053;84;21816;-60
2022/12/27 03:40:27;;;;;;;4.03;3.62;;;;;;;3.51;100.00;99473.41;1700030;83;21477;-59
2022/12/27 03:43:12;;;;;;;4.40;3.85;;;;;;;3.55;100.00;99475.97;1701326;82;21463;-60
2022/12/27 03:46:33;;;;;;;5.00;4.33;;;;;;;3.52;100.00;99471.66;1700117;84;21580;-59
2022/12/27 03:49:26;;;;;;;4.42;4.03;;;;;;;3.51;100.00;99471.27;1700017;83;21886;-60
2022/12/27 03:52:01;;;;;;;4.42;4.03;;;;;;;3.48;100.00;99479.09;1700219;84;21455;-59
2022/12/27 03:54:31;;;;;;;4.30;3.90;;;;;;;3.50;100.00;99470.83;1700006;83;21480;-59
2022/12/27 03:57:02;;;;;;;4.47;4.08;;;;;;;3.49;100.00;99473.88;1699967;83;21494;-60
2022/12/27 03:59:28;;;;;;;6.08;4.72;;;;;;;3.53;100.00;99465.59;1700734;82;21006;-60
2022/12/27 04:01:55;;;;;;;4.20;3.75;;;;;;;3.58;100.00;99458.58;1674029;83;21822;-60
2022/12/27 04:04:22;;;;;;;4.30;4.00;;;;;;;3.61;100.00;99447.26;1700007;83;21506;-59
2022/12/27 04:06:49;;;;;;;4.50;4.10;;;;;;;3.58;100.00;99439.08;1700277;83;21545;-59
2022/12/27 04:36:49;;;;;;;5.55;4.85;;;;;;;3.73;100.00;99421.05;1689615;84;21572;-59
2022/12/27 04:39:16;;;;;;;5.92;5.37;;;;;;;3.66;100.00;99421.59;1689659;83;21462;-59
2022/12/27 04:55:31;;;;;;;5.40;4.72;;;;;;;3.85;100.00;99403.05;1664871;83;21805;-59
2022/12/27 04:57:58;;;;;;;6.33;5.72;;;;;;;3.90;100.00;99394.27;1706616;83;21441;-59
2022/12/27 05:03:21;;;;;;;5.97;5.40;;;;;;;4.01;100.00;99383.66;1687958;84;21442;-60
2022/12/27 05:05:48;;;;;;;6.87;5.90;;;;;;;4.07;100.00;99375.72;1631093;86;21496;-59
2022/12/27 05:14:00;;;;;;;6.97;6.25;;;;;;;4.10;100.00;99384.74;1689429;84;21423;-59
2022/12/27 05:16:35;;;;;;;7.95;6.53;;;;;;;4.06;100.00;99398.70;1734866;82;21728;-59
2022/12/27 05:19:04;;;;;;;7.58;6.42;;;;;;;4.03;100.00;99400.09;1734859;82;21605;-60
2022/12/27 05:21:35;;;;;;;8.63;6.97;;;;;;;4.12;100.00;99390.38;1758120;80;21854;-59
2022/12/27 05:26:48;;;;;;;7.35;6.45;;;;;;;4.13;100.00;99383.84;1697003;83;21514;-58
2022/12/27 05:29:15;;;;;;;6.37;5.67;;;;;;;4.20;100.00;99391.06;1712174;83;21518;-59
2022/12/27 05:31:41;;;;;;;7.45;6.40;;;;;;;4.12;100.00;99395.58;1706769;83;21457;-58
2022/12/27 05:34:08;;;;;;;7.90;6.87;;;;;;;4.16;100.00;99394.62;1705590;83;21547;-59
2022/12/27 05:36:35;;;;;;;9.58;7.67;;;;;;;4.17;100.00;99401.55;1705416;83;21510;-59
2022/12/27 05:39:01;;;;;;;9.70;7.95;;;;;;;4.08;100.00;99403.88;1705492;83;21451;-59
2022/12/27 05:41:28;;;;;;;10.35;8.40;;;;;;;4.18;100.00;99398.05;1693572;83;21470;-58
2022/12/27 05:43:56;;;;;;;11.45;8.50;;;;;;;4.09;100.00;99403.02;1706305;83;21556;-58
2022/12/27 05:46:24;;;;;;;10.55;7.80;;;;;;;4.09;100.00;99407.77;1637436;84;21927;-58
2022/12/27 05:48:51;;;;;;;8.80;7.35;;;;;;;4.07;100.00;99404.80;1719940;83;21482;-57
2022/12/27 05:51:20;;;;;;;10.63;8.35;;;;;;;4.16;100.00;99411.08;1689321;83;21538;-63
2022/12/27 05:53:47;;;;;;;10.15;7.90;;;;;;;4.16;100.00;99403.28;1710299;83;21533;-58
2022/12/27 05:56:19;;;;;;;9.85;7.58;;;;;;;4.22;100.00;99399.27;1708759;83;21648;-55
2022/12/27 05:58:46;;;;;;;9.50;8.08;;;;;;;4.19;100.00;99399.77;1708570;83;22708;-56
2022/12/27 06:01:15;;;;;;;10.63;8.03;;;;;;;4.18;100.00;99396.32;1709740;81;21571;-57
2022/12/27 06:03:43;;;;;;;9.00;8.05;;;;;;;4.24;100.00;99394.03;1710893;81;21640;-58
2022/12/27 06:06:11;;;;;;;10.57;8.30;;;;;;;4.31;100.00;99388.23;1716442;81;21597;-59
2022/12/27 06:08:39;;;;;;;11.78;9.30;;;;;;;4.20;100.00;99388.45;1711668;80;21100;-59
2022/12/27 06:11:10;;;;;;;9.43;7.50;;;;;;;4.32;100.00;99391.27;1712038;82;21930;-59
2022/12/27 06:13:59;;;;;;;11.05;8.00;;;;;;;4.41;100.00;99384.11;1704490;82;21565;-59
2022/12/27 06:43:38;;;;;;;11.40;9.75;;;;;;;2.24;100.00;99407.34;1767326;78;23455;-60
2022/12/27 06:49:25;;;;;;;13.38;10.55;;;;;;;3.60;100.00;99449.42;1590884;87;21068;-63
2022/12/27 06:51:52;;;;;;;17.27;11.80;;;;;;;3.75;100.00;99434.88;1572088;89;21586;-64
2022/12/27 06:54:21;;;;;;;15.80;11.43;;;;;;;3.82;100.00;99428.65;1575524;88;21617;-68
2022/12/27 06:56:48;;;;;;;18.37;13.32;;;;;;;3.96;100.00;99422.36;1589447;89;21041;-68
2022/12/27 06:59:16;;;;;;;38.55;24.02;;;;;;;4.04;100.00;99423.05;1582803;87;21638;-67
2022/12/27 07:01:44;;;;;;;34.35;21.35;;;;;;;4.07;100.00;99418.65;1603647;87;22112;-64
2022/12/27 07:04:10;;;;;;;22.05;16.50;;;;;;;4.14;100.00;99416.77;1604039;87;21543;-62
2022/12/27 07:06:38;;;;;;;25.88;16.57;;;;;;;4.18;100.00;99414.54;1605075;87;21068;-61
2022/12/27 07:09:06;;;;;;;19.90;15.05;;;;;;;4.21;100.00;99409.25;1605739;88;28123;-61
2022/12/27 07:11:35;;;;;;;22.93;15.72;;;;;;;4.29;100.00;99400.86;1602155;87;21711;-61
2022/12/27 07:14:03;;;;;;;21.48;13.70;;;;;;;4.35;100.00;99400.30;1604398;87;22254;-62
2022/12/27 07:16:30;;;;;;;20.88;14.70;;;;;;;4.32;100.00;99395.17;1604884;87;21045;-62
2022/12/27 07:18:58;;;;;;;16.07;12.58;;;;;;;4.39;100.00;99393.70;1605513;87;21523;-63
2022/12/27 07:21:26;;;;;;;21.40;15.00;;;;;;;4.52;100.00;99386.91;1603985;88;21540;-61
2022/12/27 07:23:54;;;;;;;22.50;16.97;;;;;;;4.52;100.00;99384.31;1606116;87;21540;-61
2022/12/27 07:26:28;;;;;;;21.82;15.85;;;;;;;4.61;100.00;99385.41;1622918;85;21924;-64
2022/12/27 07:28:56;;;;;;;19.37;14.60;;;;;;;4.70;100.00;99388.26;1637456;85;21598;-66
2022/12/27 07:31:45;;;;;;;20.27;15.00;;;;;;;4.74;100.00;99389.89;1641369;85;21517;-63
2022/12/27 07:34:13;;;;;;;24.15;17.25;;;;;;;4.75;100.00;99376.84;1642371;84;21621;-63
2022/12/27 07:36:40;;;;;;;22.62;16.40;;;;;;;4.81;100.00;99381.05;1660270;84;21771;-60
2022/12/27 07:39:08;;;;;;;29.47;19.93;;;;;;;4.87;100.00;99380.90;1670778;83;21593;-59
2022/12/27 07:41:37;;;;;;;21.95;15.45;;;;;;;4.94;100.00;99379.02;1640139;85;21686;-59
2022/12/27 07:44:04;;;;;;;22.65;14.50;;;;;;;5.00;100.00;99385.38;1680324;84;21508;-60
2022/12/27 07:46:32;;;;;;;19.40;13.40;;;;;;;5.02;100.00;99377.92;1667359;84;21502;-60
2022/12/27 07:48:59;;;;;;;16.10;12.98;;;;;;;5.07;100.00;99386.49;1674078;84;21194;-60
2022/12/27 07:51:26;;;;;;;19.17;14.18;;;;;;;5.05;100.00;99387.44;1680294;84;21911;-59
2022/12/27 07:53:53;;;;;;;18.73;14.63;;;;;;;5.13;100.00;99398.52;1668662;84;21617;-59
2022/12/27 07:56:23;;;;;;;21.25;14.60;;;;;;;5.19;100.00;99400.11;1640811;84;21524;-59
2022/12/27 07:58:50;;;;;;;24.63;14.90;;;;;;;5.26;100.00;99388.19;1660012;84;21672;-58
2022/12/27 08:01:19;;;;;;;;;;;;;;;5.34;100.00;99386.69;1703649;82;21613;-58
2022/12/27 08:03:46;;;;;;;17.70;12.98;;;;;;;5.37;100.00;99391.84;1687806;83;21807;-59
2022/12/27 08:06:31;;;;;;;19.23;13.67;;;;;;;5.36;100.00;99387.96;1703815;82;21503;-59
2022/12/27 08:09:00;;;;;;;15.85;13.32;;;;;;;5.43;100.00;99386.91;1641957;84;21073;-59
2022/12/27 08:11:28;;;;;;;19.65;13.45;;;;;;;5.51;100.00;99395.84;1700413;82;21623;-60
2022/12/27 08:13:56;;;;;;;19.20;13.88;;;;;;;5.58;100.00;99398.70;1701481;82;21405;-59
2022/12/27 15:48:15;;;;;;;1.90;1.52;;;;;;;4.12;100.00;99283.23;1774351;78;23207;-60
2022/12/27 15:51:11;;;;;;;2.02;1.67;;;;;;;4.57;100.00;99355.97;1743348;80;21006;-60
2022/12/27 15:54:05;;;;;;;1.77;1.37;;;;;;;4.85;100.00;99345.77;1699215;82;21759;-58
2022/12/27 15:57:12;;;;;;;1.75;1.30;;;;;;;4.96;100.00;99354.63;1709654;81;21422;-61
2022/12/27 15:59:53;;;;;;;2.12;1.35;;;;;;;4.98;100.00;99337.20;1698811;83;21557;-59
2022/12/27 16:02:45;;;;;;;3.17;1.30;;;;;;;4.97;100.00;99359.38;1677314;81;21911;-61
2022/12/27 16:05:22;;;;;;;1.35;1.10;;;;;;;5.08;100.00;99356.06;1710856;83;21456;-60
2022/12/27 16:07:59;;;;;;;1.67;1.40;;;;;;;5.07;100.00;99355.22;1701725;83;21786;-59
2022/12/27 16:10:34;;;;;;;1.12;1.02;;;;;;;5.04;100.00;99344.86;1697197;83;21531;-59
2022/12/27 16:13:12;;;;;;;0.90;0.75;;;;;;;4.99;100.00;99361.08;1697158;83;21538;-59
2022/12/27 16:15:48;;;;;;;0.62;0.62;;;;;;;4.97;100.00;99355.05;1690289;83;21564;-61
2022/12/27 16:18:22;;;;;;;0.88;0.80;;;;;;;4.98;100.00;99372.38;1703978;81;21516;-60
2022/12/27 16:21:01;;;;;;;1.32;1.22;;;;;;;4.95;100.00;99374.20;1707582;81;21918;-60
2022/12/27 16:23:47;;;;;;;1.00;0.80;;;;;;;4.93;100.00;99391.17;1698656;83;21626;-60
2022/12/27 16:26:28;;;;;;;0.93;0.78;;;;;;;4.87;100.00;99387.41;1669266;83;21534;-60
2022/12/27 16:29:05;;;;;;;0.80;0.57;;;;;;;4.89;100.00;99399.95;1695361;83;21133;-59
2022/12/27 16:31:34;;;;;;;0.70;0.70;;;;;;;4.84;100.00;99404.41;1670178;83;20998;-59
2022/12/27 16:34:14;;;;;;;0.85;0.80;;;;;;;4.78;100.00;99396.74;1672312;84;21748;-59
2022/12/27 16:36:57;;;;;;;0.85;0.65;;;;;;;4.80;100.00;99413.19;1674764;82;21545;-59
2022/12/27 16:40:04;;;;;;;1.15;0.80;;;;;;;4.76;100.00;99396.77;1693928;83;21450;-60
2022/12/27 16:43:10;;;;;;;1.77;0.98;;;;;;;4.76;100.00;99432.39;1695888;83;21590;-61
2022/12/27 16:45:42;;;;;;;2.00;1.27;;;;;;;4.75;100.00;99459.34;1691281;83;21470;-59
2022/12/27 16:48:44;;;;;;;1.20;0.90;;;;;;;4.71;100.00;99462.88;1672006;83;21841;-59
2022/12/27 16:51:37;;;;;;;1.40;0.82;;;;;;;4.64;100.00;99473.44;1657121;83;21438;-60
2022/12/27 16:54:27;;;;;;;0.70;0.70;;;;;;;4.65;100.00;99482.10;1748816;81;21498;-61
2022/12/27 16:57:23;;;;;;;0.82;0.80;;;;;;;4.45;100.00;99484.69;1746005;81;21461;-59
2022/12/27 17:00:00;;;;;;;0.70;0.62;;;;;;;4.52;100.00;99504.08;1737780;81;21544;-61
2022/12/27 17:02:44;;;;;;;0.50;0.50;;;;;;;4.53;100.00;99501.45;1684324;82;21792;-60
2022/12/27 17:05:22;;;;;;;0.80;0.55;;;;;;;4.53;100.00;99502.75;1707585;83;21502;-60
2022/12/27 17:11:51;;;;;;;0.70;0.70;;;;;;;4.51;100.00;99520.16;1740874;80;20944;-63
2022/12/27 17:14:26;;;;;;;1.42;0.60;;;;;;;4.38;100.00;99509.12;1743848;80;21554;-63
2022/12/27 17:17:09;;;;;;;2.33;0.55;;;;;;;4.29;100.00;99513.20;1736883;80;22087;-68
2022/12/27 17:19:53;;;;;;;0.50;0.50;;;;;;;4.31;100.00;99513.17;1704183;81;21608;-63
2022/12/27 17:22:20;;;;;;;0.70;0.70;;;;;;;4.26;100.00;99527.59;1741362;80;21513;-70
2022/12/27 17:24:47;;;;;;;1.22;0.47;;;;;;;4.27;100.00;99511.92;1728738;81;21540;-68
2022/12/27 17:27:32;;;;;;;0.98;0.72;;;;;;;4.28;100.00;99527.97;1735316;80;21522;-72
2022/12/27 17:30:20;;;;;;;1.65;1.07;;;;;;;4.28;100.00;99536.23;1736520;80;21886;-67
2022/12/27 17:33:14;;;;;;;0.53;0.53;;;;;;;4.23;100.00;99538.91;1738719;80;21498;-63
2022/12/27 17:36:29;;;;;;;0.65;0.62;;;;;;;4.15;100.00;99531.69;1731668;80;21415;-61
2022/12/27 17:39:28;;;;;;;1.27;0.78;;;;;;;4.17;100.00;99538.17;1739594;80;21483;-62
2022/12/27 17:45:12;;;;;;;4.95;1.00;;;;;;;4.09;100.00;99567.79;1734433;80;21803;-65
2022/12/27 17:48:24;;;;;;;1.22;1.07;;;;;;;4.03;100.00;99580.03;1740730;80;21513;-63
2022/12/27 17:50:53;;;;;;;2.60;0.80;;;;;;;3.98;100.00;99590.98;1742135;80;21543;-64
2022/12/27 17:59:10;;;;;;;3.05;1.10;;;;;;;4.03;100.00;99600.84;1743482;80;21568;-63
2022/12/27 18:01:49;;;;;;;2.83;1.32;;;;;;;4.05;100.00;99596.47;1743802;80;21635;-64
2022/12/27 18:04:26;;;;;;;1.60;1.07;;;;;;;4.05;100.00;99602.56;1663834;84;21551;-64
2022/12/27 18:06:58;;;;;;;;;;;;;;;4.04;100.00;99599.52;1738233;80;21566;-63
2022/12/27 18:09:47;;;;;;;4.92;1.20;;;;;;;3.93;100.00;99594.09;1738255;80;20468;-62
2022/12/27 18:12:23;;;;;;;2.65;1.00;;;;;;;3.98;100.00;99600.09;1736796;82;21928;-63
2022/12/27 18:15:13;;;;;;;2.62;1.12;;;;;;;4.00;100.00;99613.47;1731712;82;21546;-62
2022/12/27 18:17:51;;;;;;;2.52;1.32;;;;;;;3.97;100.00;99610.91;1732650;81;21485;-63
2022/12/27 18:20:31;;;;;;;4.03;1.40;;;;;;;3.97;100.00;99620.47;1728893;80;21521;-63
2022/12/27 18:23:07;;;;;;;1.32;0.93;;;;;;;3.87;100.00;99608.06;1696344;84;21033;-63
2022/12/27 18:25:44;;;;;;;2.45;1.72;;;;;;;3.84;100.00;99616.78;1691436;82;21845;-63
2022/12/27 18:28:27;;;;;;;3.47;0.95;;;;;;;3.73;100.00;99617.80;1725114;82;21413;-62
2022/12/27 18:31:06;;;;;;;3.52;0.90;;;;;;;3.69;100.00;99615.69;1713498;81;21022;-63
2022/12/27 18:33:46;;;;;;;3.20;1.05;;;;;;;3.69;100.00;99620.47;1724067;82;21490;-64
2022/12/27 18:36:21;;;;;;;4.97;1.30;;;;;;;3.64;100.00;99613.17;1707853;82;21432;-63
2022/12/27 18:38:53;;;;;;;2.60;1.05;;;;;;;3.58;100.00;99614.98;1733554;80;21792;-65
2022/12/27 18:41:21;;;;;;;3.35;1.50;;;;;;;3.55;100.00;99623.70;1733979;81;21581;-63
2022/12/27 18:43:51;;;;;;;2.40;1.30;;;;;;;3.50;100.00;99632.00;1731532;81;21493;-63
2022/12/27 18:46:28;;;;;;;2.35;1.32;;;;;;;3.45;100.00;99632.08;1731013;80;21524;-63
2022/12/27 18:48:56;;;;;;;4.15;1.32;;;;;;;3.44;100.00;99632.09;1727884;81;21540;-64
2022/12/27 18:51:30;;;;;;;;;;;;;;;3.41;100.00;99630.41;1720711;82;21787;-61
2022/12/27 18:53:57;;;;;;;4.95;1.55;;;;;;;3.33;100.00;99642.63;1730955;80;20412;-63
2022/12/27 18:56:29;;;;;;;3.22;1.70;;;;;;;3.38;100.00;99643.44;1710616;82;21488;-65
2022/12/27 18:59:06;;;;;;;3.98;1.92;;;;;;;3.37;100.00;99645.64;1717541;82;21536;-64
2022/12/27 19:01:39;;;;;;;3.30;1.92;;;;;;;3.38;100.00;99652.98;1711291;81;21545;-64
2022/12/27 19:04:30;;;;;;;4.35;1.70;;;;;;;3.39;100.00;99646.47;1732881;80;21883;-62
2022/12/27 19:07:08;;;;;;;2.60;1.40;;;;;;;3.38;100.00;99649.94;1708490;82;21555;-62
2022/12/27 19:09:53;;;;;;;3.87;1.80;;;;;;;3.36;100.00;99658.65;1725479;81;21699;-62
2022/12/27 19:12:28;;;;;;;3.83;1.27;;;;;;;3.37;100.00;99661.65;1716096;82;21483;-64
2022/12/27 19:14:54;;;;;;;2.92;1.70;;;;;;;3.39;100.00;99668.56;1696280;82;21576;-63
2022/12/27 19:17:31;;;;;;;3.58;1.75;;;;;;;3.40;100.00;99677.21;1676359;83;21842;-63
2022/12/27 19:20:02;;;;;;;3.55;1.45;;;;;;;3.40;100.00;99680.66;1695078;82;21530;-64
2022/12/27 19:22:47;;;;;;;3.77;1.55;;;;;;;3.45;100.00;99680.63;1668521;84;21529;-62
2022/12/27 19:25:27;;;;;;;3.58;1.65;;;;;;;3.46;100.00;99683.17;1693437;83;21625;-64
2022/12/27 19:28:12;;;;;;;5.00;1.65;;;;;;;3.47;100.00;99685.36;1731793;81;21575;-62
2022/12/27 19:30:45;;;;;;;4.40;1.35;;;;;;;3.53;100.00;99685.72;1728902;81;22180;-62
2022/12/27 19:33:26;;;;;;;3.02;1.15;;;;;;;3.55;100.00;99691.30;1726858;80;21642;-62
2022/12/27 19:35:52;;;;;;;2.95;1.47;;;;;;;3.57;100.00;99694.73;1734236;81;21544;-63
2022/12/27 19:38:23;;;;;;;2.00;1.12;;;;;;;3.57;100.00;99702.98;1737259;81;21453;-62
2022/12/27 19:40:56;;;;;;;2.37;1.37;;;;;;;3.61;100.00;99697.71;1708012;82;21533;-62
2022/12/27 19:43:24;;;;;;;4.20;1.70;;;;;;;3.62;100.00;99709.00;1728490;81;22005;-63
2022/12/27 19:45:51;;;;;;;2.85;1.17;;;;;;;3.63;100.00;99710.25;1721375;80;21584;-63
2022/12/27 19:48:18;;;;;;;2.30;1.30;;;;;;;3.66;100.00;99712.82;1687157;83;21447;-64
2022/12/27 19:50:51;;;;;;;1.67;1.00;;;;;;;3.62;100.00;99711.59;1675318;84;21593;-66
2022/12/27 19:53:23;;;;;;;1.77;1.17;;;;;;;3.61;100.00;99718.97;1680365;83;21497;-60
2022/12/27 19:56:07;;;;;;;3.25;1.10;;;;;;;3.70;100.00;99714.49;1722431;79;21853;-63
2022/12/27 19:58:34;;;;;;;2.15;1.22;;;;;;;3.73;100.00;99716.63;1729771;80;21514;-63
2022/12/27 20:01:01;;;;;;;2.17;1.10;;;;;;;3.67;100.00;99713.67;1737344;80;21668;-62
2022/12/27 20:03:28;;;;;;;2.17;1.20;;;;;;;3.70;100.00;99719.69;1741338;80;20999;-63
2022/12/27 20:05:57;;;;;;;1.87;1.12;;;;;;;3.70;100.00;99727.49;1738277;80;21578;-64
2022/12/27 20:08:35;;;;;;;2.58;1.10;;;;;;;3.74;100.00;99720.97;1740094;80;21832;-63
2022/12/27 20:11:04;;;;;;;2.95;1.20;;;;;;;3.76;100.00;99719.20;1738454;80;21631;-64
2022/12/27 20:13:31;;;;;;;3.45;1.25;;;;;;;3.81;100.00;99723.45;1735328;80;21483;-65
2022/12/27 20:15:58;;;;;;;2.98;1.47;;;;;;;3.85;100.00;99723.83;1731808;80;21586;-65
2022/12/27 20:18:25;;;;;;;4.00;1.47;;;;;;;3.81;100.00;99718.70;1738669;80;21427;-68
2022/12/27 20:20:52;;;;;;;3.72;1.22;;;;;;;3.85;100.00;99714.72;1734048;80;21857;-64
2022/12/27 20:23:19;;;;;;;5.00;1.27;;;;;;;3.80;100.00;99721.72;1737632;80;21522;-65
2022/12/27 20:25:47;;;;;;;4.78;1.40;;;;;;;3.81;100.00;99713.50;1727806;80;21521;-64
2022/12/27 20:28:17;;;;;;;3.08;1.32;;;;;;;3.84;100.00;99718.22;1689762;82;21567;-65
2022/12/27 20:30:45;;;;;;;3.60;1.20;;;;;;;3.78;100.00;99718.73;1697597;83;21597;-66
2022/12/27 20:33:11;;;;;;;;;;;;;;;3.82;100.00;99725.61;1706005;83;21983;-65
2022/12/27 20:35:40;;;;;;;2.65;1.07;;;;;;;3.75;100.00;99731.77;1699626;82;20270;-66
2022/12/27 20:38:06;;;;;;;3.60;1.40;;;;;;;3.72;100.00;99730.08;1695625;83;21519;-69
2022/12/27 20:40:33;;;;;;;2.37;1.10;;;;;;;3.76;100.00;99731.75;1701875;83;21495;-67
2022/12/27 20:43:01;;;;;;;4.03;1.70;;;;;;;3.74;100.00;99733.97;1701372;83;21475;-64
2022/12/27 20:45:28;;;;;;;2.67;1.27;;;;;;;3.77;100.00;99730.00;1695870;83;21846;-64
2022/12/27 20:47:55;;;;;;;2.17;1.17;;;;;;;3.77;100.00;99733.48;1701699;83;21603;-65
2022/12/27 20:50:21;;;;;;;2.10;1.00;;;;;;;3.81;100.00;99742.11;1698885;82;21099;-64
2022/12/27 20:52:48;;;;;;;3.75;0.90;;;;;;;3.84;100.00;99744.23;1703764;83;21476;-63
2022/12/27 20:55:15;;;;;;;2.98;1.15;;;;;;;3.84;100.00;99742.05;1700632;83;21452;-66
2022/12/27 20:57:42;;;;;;;2.67;0.93;;;;;;;3.88;100.00;99747.20;1734066;80;22167;-64
2022/12/27 21:00:10;;;;;;;6.75;1.42;;;;;;;3.89;100.00;99750.66;1758201;80;21624;-64
2022/12/27 21:02:38;;;;;;;;;;;;;;;3.83;100.00;99755.50;1734744;80;21327;-64
2022/12/27 21:05:06;;;;;;;3.22;1.22;;;;;;;3.81;100.00;99765.07;1742888;80;20539;-64
2022/12/27 21:07:32;;;;;;;;;;;;;;;3.87;100.00;99762.38;1746379;80;21608;-65
2022/12/27 21:09:59;;;;;;;1.72;0.95;;;;;;;3.69;100.00;99766.52;1749344;80;21784;-65
2022/12/27 21:12:25;;;;;;;3.65;1.40;;;;;;;3.83;100.00;99775.02;1741111;80;21938;-65
2022/12/27 21:14:53;;;;;;;3.08;1.20;;;;;;;3.80;100.00;99776.80;1739275;80;21522;-65
2022/12/27 21:17:21;;;;;;;2.92;1.35;;;;;;;3.84;100.00;99784.97;1711911;82;22403;-66
2022/12/27 21:19:48;;;;;;;2.87;1.20;;;;;;;3.86;100.00;99787.99;1753773;80;21449;-65
2022/12/27 21:22:15;;;;;;;2.72;1.30;;;;;;;3.88;100.00;99783.62;1744388;80;21856;-66
2022/12/27 21:24:41;;;;;;;3.15;1.12;;;;;;;3.89;100.00;99777.52;1755859;80;21585;-65
2022/12/27 21:27:08;;;;;;;2.50;0.90;;;;;;;3.79;100.00;99768.59;1743933;80;21514;-64
2022/12/27 21:29:35;;;;;;;2.67;1.20;;;;;;;3.85;100.00;99776.30;1747973;80;21545;-65
2022/12/27 21:32:02;;;;;;;2.98;1.20;;;;;;;3.83;100.00;99781.97;1748551;80;20939;-65
2022/12/27 21:34:30;;;;;;;3.37;1.02;;;;;;;3.84;100.00;99788.45;1751035;80;21423;-64
2022/12/27 21:36:56;;;;;;;4.95;1.10;;;;;;;3.81;100.00;99791.53;1756675;80;21554;-63
2022/12/27 21:39:23;;;;;;;4.10;1.05;;;;;;;3.81;100.00;99798.03;1756065;80;21542;-64
2022/12/27 21:41:49;;;;;;;2.27;0.98;;;;;;;3.82;100.00;99808.39;1744186;80;21014;-65
2022/12/27 21:44:20;;;;;;;4.03;1.20;;;;;;;3.82;100.00;99803.64;1739347;80;21549;-64
2022/12/27 21:46:46;;;;;;;2.17;0.95;;;;;;;3.84;100.00;99801.88;1742096;80;22070;-63
2022/12/27 21:49:13;;;;;;;3.00;1.20;;;;;;;3.87;100.00;99803.15;1749838;80;21490;-66
2022/12/27 21:51:43;;;;;;;3.22;1.22;;;;;;;3.84;100.00;99800.16;1747801;80;22201;-65
2022/12/27 21:54:12;;;;;;;3.27;1.12;;;;;;;3.86;100.00;99811.41;1751748;80;21443;-64